Time;durP1;ratioP1;P1;durP2;ratioP2;P2;SDS_P1;SDS_P2;PMS_P1;PMS_P2;Temp;Humidity;BMP_temperature;BMP_pressure;BME280_temperature;BME280_humidity;BME280_pressure;Samples;Min_cycle;Max_cycle;Signal;HPM_P1;HPM_P2
2021/12/08 00:00:27;;;;;;;45.33;21.02;;;;;;;;;;5006388;28;20100;-59
2021/12/08 00:02:55;;;;;;;43.22;17.08;;;;;;;;;;5003705;28;20034;-60
2021/12/08 00:05:21;;;;;;;31.40;16.33;;;;;;;;;;4992777;28;20113;-66
2021/12/08 00:07:47;;;;;;;39.95;18.13;;;;;;;;;;4999848;28;20030;-64
2021/12/08 00:15:24;;;;;;;57.85;27.80;;;;;;;;;;5012590;28;20045;-64
2021/12/08 00:17:50;;;;;;;31.17;15.18;;;;;;;;;;5011978;28;20037;-64
2021/12/08 00:20:15;;;;;;;43.40;19.23;;;;;;;;;;4995162;28;20053;-63
2021/12/08 00:22:41;;;;;;;24.25;14.35;;;;;;;;;;5003072;28;20465;-64
2021/12/08 00:25:07;;;;;;;26.25;12.82;;;;;;;;;;5009840;28;20087;-63
2021/12/08 00:27:32;;;;;;;49.88;15.65;;;;;;;;;;4992761;28;20401;-59
2021/12/08 00:29:58;;;;;;;36.00;16.00;;;;;;;;;;4992443;28;20027;-61
2021/12/08 00:32:27;;;;;;;54.72;27.08;;;;;;;;;;5000824;28;20056;-65
2021/12/08 00:34:53;;;;;;;42.53;20.90;;;;;;;;;;5012179;28;20042;-59
2021/12/08 00:37:18;;;;;;;43.75;21.02;;;;;;;;;;4994571;28;20392;-64
2021/12/08 00:39:44;;;;;;;26.50;15.48;;;;;;;;;;5012043;28;20362;-61
2021/12/08 00:42:10;;;;;;;28.75;16.35;;;;;;;;;;5012131;28;20072;-65
2021/12/08 00:44:36;;;;;;;37.63;18.50;;;;;;;;;;5012241;28;20034;-63
2021/12/08 00:47:02;;;;;;;83.43;20.25;;;;;;;;;;5011800;28;20385;-63
2021/12/08 00:49:27;;;;;;;50.22;23.02;;;;;;;;;;5012497;28;20505;-65
2021/12/08 00:51:54;;;;;;;50.20;20.67;;;;;;;;;;5015503;28;20042;-65
2021/12/08 00:54:20;;;;;;;61.38;31.13;;;;;;;;;;5015230;28;20037;-64
2021/12/08 00:56:45;;;;;;;56.75;28.15;;;;;;;;;;5015539;28;20025;-65
2021/12/08 00:59:11;;;;;;;62.78;32.92;;;;;;;;;;5004332;28;20022;-64
2021/12/08 01:01:38;;;;;;;42.65;22.58;;;;;;;;;;5006542;28;20156;-65
2021/12/08 01:04:04;;;;;;;48.95;22.77;;;;;;;;;;5014131;28;20108;-65
2021/12/08 01:06:30;;;;;;;37.13;17.85;;;;;;;;;;5010930;28;20401;-66
2021/12/08 01:08:56;;;;;;;39.38;16.30;;;;;;;;;;5014808;28;20018;-65
2021/12/08 01:11:22;;;;;;;37.20;16.90;;;;;;;;;;5014630;28;20058;-67
2021/12/08 01:13:50;;;;;;;54.28;25.95;;;;;;;;;;5014620;28;20109;-66
2021/12/08 01:16:17;;;;;;;45.58;24.00;;;;;;;;;;5014941;28;20045;-66
2021/12/08 01:18:42;;;;;;;40.35;19.08;;;;;;;;;;4997243;28;20544;-66
2021/12/08 01:21:10;;;;;;;36.17;17.58;;;;;;;;;;5014942;28;20045;-63
2021/12/08 01:23:37;;;;;;;34.28;17.48;;;;;;;;;;5014501;28;20072;-66
2021/12/08 01:26:05;;;;;;;39.72;17.02;;;;;;;;;;5023810;28;20038;-65
2021/12/08 01:28:30;;;;;;;27.48;13.77;;;;;;;;;;5004494;28;20033;-66
2021/12/08 01:30:58;;;;;;;31.15;15.63;;;;;;;;;;5013790;28;20455;-66
2021/12/08 01:33:24;;;;;;;36.83;16.23;;;;;;;;;;5014447;28;20029;-66
2021/12/08 01:35:51;;;;;;;39.35;19.50;;;;;;;;;;5005602;28;20050;-65
2021/12/08 01:38:17;;;;;;;40.60;19.20;;;;;;;;;;4984177;28;20018;-61
2021/12/08 01:40:43;;;;;;;46.65;25.50;;;;;;;;;;5010548;28;20173;-66
2021/12/08 01:43:23;;;;;;;34.15;14.20;;;;;;;;;;5007887;28;20108;-66
2021/12/08 01:45:59;;;;;;;26.63;14.45;;;;;;;;;;4999856;28;20034;-66
2021/12/08 01:48:28;;;;;;;40.53;16.98;;;;;;;;;;5001249;28;20425;-66
2021/12/08 01:50:59;;;;;;;64.30;31.95;;;;;;;;;;4995175;28;20367;-66
2021/12/08 01:53:25;;;;;;;43.72;22.77;;;;;;;;;;5013879;28;20464;-63
2021/12/08 01:55:51;;;;;;;43.30;23.70;;;;;;;;;;5013737;28;20096;-65
2021/12/08 01:58:18;;;;;;;51.33;27.52;;;;;;;;;;5013285;28;20080;-67
2021/12/08 02:00:55;;;;;;;36.08;19.00;;;;;;;;;;5007089;28;20065;-66
2021/12/08 02:03:24;;;;;;;39.58;19.85;;;;;;;;;;4990764;28;20071;-65
2021/12/08 02:05:51;;;;;;;28.42;14.75;;;;;;;;;;5011613;28;20022;-66
2021/12/08 02:08:17;;;;;;;37.53;18.50;;;;;;;;;;5013896;28;20026;-66
2021/12/08 02:10:43;;;;;;;56.05;27.33;;;;;;;;;;5013737;28;20532;-65
2021/12/08 02:13:10;;;;;;;41.63;19.73;;;;;;;;;;5004460;28;20040;-66
2021/12/08 02:15:38;;;;;;;44.13;22.17;;;;;;;;;;5010550;28;20040;-65
2021/12/08 02:18:05;;;;;;;38.42;14.60;;;;;;;;;;5014117;28;20038;-66
2021/12/08 02:20:31;;;;;;;33.78;14.93;;;;;;;;;;4998101;28;21394;-66
2021/12/08 02:22:57;;;;;;;36.67;13.55;;;;;;;;;;4994203;28;20030;-63
2021/12/08 02:25:25;;;;;;;30.75;13.55;;;;;;;;;;4994241;28;20384;-64
2021/12/08 02:27:52;;;;;;;37.63;19.65;;;;;;;;;;4994752;28;20462;-61
2021/12/08 02:46:48;;;;;;;30.45;15.25;;;;;;;;;;5013563;28;20044;-66
2021/12/08 02:49:15;;;;;;;38.78;16.05;;;;;;;;;;5013189;28;20509;-65
2021/12/08 02:51:41;;;;;;;25.80;14.55;;;;;;;;;;5015272;28;20026;-67
2021/12/08 02:54:07;;;;;;;25.08;15.38;;;;;;;;;;5007686;28;20113;-66
2021/12/08 02:56:33;;;;;;;51.67;29.00;;;;;;;;;;5002774;28;20113;-65
2021/12/08 02:58:59;;;;;;;34.97;14.18;;;;;;;;;;5019174;28;20032;-66
2021/12/08 03:01:26;;;;;;;34.13;15.30;;;;;;;;;;5005966;28;20503;-66
2021/12/08 03:03:52;;;;;;;12.32;8.65;;;;;;;;;;5002023;28;20025;-65
2021/12/08 03:06:19;;;;;;;44.13;22.08;;;;;;;;;;5012070;28;20033;-59
2021/12/08 03:08:45;;;;;;;35.75;19.85;;;;;;;;;;5010622;28;20049;-67
2021/12/08 03:11:10;;;;;;;33.17;14.25;;;;;;;;;;5001896;28;20462;-66
2021/12/08 03:13:45;;;;;;;46.50;23.73;;;;;;;;;;4998169;28;20445;-64
2021/12/08 03:16:12;;;;;;;27.92;12.18;;;;;;;;;;4993509;28;20023;-63
2021/12/08 03:18:40;;;;;;;29.52;11.57;;;;;;;;;;5002851;28;20064;-66
2021/12/08 03:21:08;;;;;;;31.75;14.55;;;;;;;;;;5010170;28;20021;-67
2021/12/08 03:24:09;;;;;;;45.17;22.13;;;;;;;;;;5011742;28;20037;-66
2021/12/08 03:26:27;;;;;;;32.40;15.57;;;;;;;;;;5010049;28;20052;-64
2021/12/08 03:29:02;;;;;;;29.75;14.23;;;;;;;;;;5011918;28;20112;-65
2021/12/08 03:31:37;;;;;;;32.08;18.27;;;;;;;;;;5005849;28;20033;-64
2021/12/08 03:34:02;;;;;;;27.27;11.55;;;;;;;;;;4997917;28;20109;-64
2021/12/08 03:36:28;;;;;;;33.47;15.18;;;;;;;;;;4992971;28;20185;-64
2021/12/08 03:38:54;;;;;;;45.47;17.65;;;;;;;;;;4975714;28;20033;-65
2021/12/08 03:41:19;;;;;;;42.13;18.42;;;;;;;;;;4998101;28;20462;-65
2021/12/08 03:43:45;;;;;;;52.60;28.33;;;;;;;;;;4992900;28;20519;-65
2021/12/08 03:46:13;;;;;;;28.77;14.25;;;;;;;;;;4994688;28;20022;-65
2021/12/08 03:48:49;;;;;;;48.63;19.00;;;;;;;;;;4996687;28;20097;-65
2021/12/08 03:51:16;;;;;;;40.25;19.50;;;;;;;;;;5006288;28;20037;-61
2021/12/08 03:53:42;;;;;;;31.67;15.38;;;;;;;;;;4996469;28;20033;-62
2021/12/08 03:56:08;;;;;;;29.42;15.40;;;;;;;;;;5012534;28;20037;-65
2021/12/08 03:58:35;;;;;;;31.60;13.73;;;;;;;;;;4996406;28;20661;-64
2021/12/08 04:01:04;;;;;;;46.22;23.30;;;;;;;;;;4998168;28;20565;-65
2021/12/08 04:03:32;;;;;;;30.25;14.05;;;;;;;;;;4993810;28;20022;-65
2021/12/08 04:06:02;;;;;;;56.35;30.35;;;;;;;;;;5012076;28;20038;-65
2021/12/08 04:08:34;;;;;;;33.35;16.63;;;;;;;;;;4992116;28;20037;-63
2021/12/08 04:11:03;;;;;;;41.88;21.65;;;;;;;;;;5012129;28;20516;-66
2021/12/08 04:13:37;;;;;;;39.27;15.07;;;;;;;;;;5012270;28;20120;-66
2021/12/08 04:16:04;;;;;;;55.08;27.63;;;;;;;;;;5008601;28;20030;-66
2021/12/08 04:18:29;;;;;;;45.22;23.98;;;;;;;;;;5011638;28;20022;-66
2021/12/08 04:20:58;;;;;;;23.85;13.07;;;;;;;;;;4999799;28;20034;-65
2021/12/08 04:23:27;;;;;;;22.85;11.00;;;;;;;;;;5003824;28;20050;-64
2021/12/08 04:25:57;;;;;;;22.58;12.23;;;;;;;;;;5000757;28;20077;-62
2021/12/08 04:28:28;;;;;;;36.42;18.17;;;;;;;;;;5002139;28;20096;-65
2021/12/08 04:31:04;;;;;;;44.88;22.17;;;;;;;;;;5002441;28;20050;-65
2021/12/08 04:33:32;;;;;;;38.72;18.15;;;;;;;;;;5009011;28;20033;-65
2021/12/08 04:35:58;;;;;;;26.67;13.90;;;;;;;;;;5001527;28;20037;-58
2021/12/08 04:38:31;;;;;;;51.42;25.50;;;;;;;;;;5004949;28;20035;-62
2021/12/08 04:41:07;;;;;;;43.80;20.10;;;;;;;;;;5007151;28;20025;-65
2021/12/08 05:10:33;;;;;;;25.52;13.60;;;;;;;;;;4997158;28;20478;-64
2021/12/08 05:13:00;;;;;;;33.80;14.32;;;;;;;;;;5005224;28;20100;-65
2021/12/08 05:15:49;;;;;;;33.83;16.23;;;;;;;;;;5007977;28;20037;-63
2021/12/08 05:18:19;;;;;;;38.30;16.58;;;;;;;;;;5001256;28;20081;-64
2021/12/08 05:21:03;;;;;;;31.02;14.25;;;;;;;;;;5003947;28;20026;-63
2021/12/08 05:23:34;;;;;;;46.17;22.40;;;;;;;;;;5012889;28;20121;-65
2021/12/08 05:26:18;;;;;;;34.85;14.73;;;;;;;;;;5014966;28;20488;-65
2021/12/08 05:28:48;;;;;;;31.20;17.48;;;;;;;;;;4995750;28;20027;-65
2021/12/08 05:31:24;;;;;;;36.70;19.88;;;;;;;;;;4995031;28;20026;-65
2021/12/08 05:33:50;;;;;;;30.58;13.20;;;;;;;;;;5003913;28;20026;-66
2021/12/08 05:36:16;;;;;;;31.27;16.40;;;;;;;;;;5021225;28;20029;-64
2021/12/08 05:38:42;;;;;;;32.85;17.58;;;;;;;;;;5002503;28;20026;-60
2021/12/08 05:41:13;;;;;;;32.33;15.20;;;;;;;;;;5005310;28;20025;-64
2021/12/08 05:43:39;;;;;;;44.45;22.40;;;;;;;;;;4997491;28;20031;-64
2021/12/08 05:46:09;;;;;;;28.85;13.82;;;;;;;;;;5005772;28;20060;-65
2021/12/08 05:48:35;;;;;;;34.45;15.60;;;;;;;;;;4999254;28;20059;-65
2021/12/08 05:51:17;;;;;;;34.80;16.48;;;;;;;;;;5006212;28;20030;-65
2021/12/08 05:53:46;;;;;;;43.67;24.40;;;;;;;;;;5017231;28;20447;-66
2021/12/08 05:56:13;;;;;;;34.10;14.20;;;;;;;;;;5012405;28;20022;-66
2021/12/08 05:58:40;;;;;;;36.88;18.20;;;;;;;;;;4994692;28;20041;-66
2021/12/08 06:01:15;;;;;;;45.30;16.02;;;;;;;;;;5007662;28;20024;-64
2021/12/08 06:03:42;;;;;;;27.27;15.32;;;;;;;;;;5004185;28;20477;-65
2021/12/08 06:06:09;;;;;;;44.92;25.63;;;;;;;;;;5012754;28;20060;-66
2021/12/08 06:08:35;;;;;;;48.40;24.23;;;;;;;;;;5004835;28;20027;-65
2021/12/08 06:11:03;;;;;;;43.97;23.05;;;;;;;;;;5011829;28;20385;-63
2021/12/08 06:13:29;;;;;;;44.03;22.90;;;;;;;;;;5013742;28;20389;-63
2021/12/08 06:15:55;;;;;;;39.42;17.02;;;;;;;;;;4998079;28;20026;-59
2021/12/08 06:18:24;;;;;;;43.53;18.23;;;;;;;;;;4994217;28;20481;-65
2021/12/08 06:20:56;;;;;;;39.60;19.58;;;;;;;;;;4994009;28;20093;-61
2021/12/08 06:23:22;;;;;;;36.88;16.40;;;;;;;;;;5000463;28;20466;-65
2021/12/08 06:25:48;;;;;;;47.00;18.50;;;;;;;;;;4997951;28;20339;-66
2021/12/08 06:28:13;;;;;;;23.98;12.63;;;;;;;;;;5013615;28;20026;-61
2021/12/08 06:30:45;;;;;;;29.95;16.48;;;;;;;;;;5003848;28;20473;-65
2021/12/08 06:33:12;;;;;;;56.08;26.98;;;;;;;;;;4994581;28;20025;-61
2021/12/08 06:35:45;;;;;;;43.33;19.67;;;;;;;;;;5009844;28;20030;-56
2021/12/08 06:38:14;;;;;;;29.75;13.35;;;;;;;;;;5007956;28;20544;-66
2021/12/08 06:40:48;;;;;;;38.92;20.17;;;;;;;;;;5000608;28;20104;-55
2021/12/08 06:43:18;;;;;;;36.63;19.70;;;;;;;;;;5011992;28;20034;-59
2021/12/08 06:45:46;;;;;;;34.17;15.50;;;;;;;;;;5006845;28;20022;-63
2021/12/08 06:48:20;;;;;;;36.53;15.43;;;;;;;;;;4997616;28;20048;-66
2021/12/08 06:50:52;;;;;;;39.90;20.35;;;;;;;;;;4996640;28;20356;-65
2021/12/08 06:53:18;;;;;;;39.88;18.40;;;;;;;;;;4996288;28;20433;-65
2021/12/08 06:55:49;;;;;;;37.40;16.15;;;;;;;;;;5001188;28;20042;-66
2021/12/08 06:58:23;;;;;;;41.67;18.45;;;;;;;;;;4991762;28;20109;-65
2021/12/08 07:01:27;;;;;;;49.90;25.95;;;;;;;;;;5008630;28;20096;-65
2021/12/08 07:06:58;;;;;;;26.13;13.18;;;;;;;;;;5001227;28;20061;-65
2021/12/08 07:09:42;;;;;;;25.65;13.07;;;;;;;;;;5002290;28;20018;-65
2021/12/08 07:12:30;;;;;;;40.80;18.08;;;;;;;;;;4999787;28;20018;-63
2021/12/08 07:15:05;;;;;;;45.05;24.75;;;;;;;;;;4996511;28;20022;-59
2021/12/08 07:17:33;;;;;;;34.60;15.38;;;;;;;;;;4999850;28;20030;-66
2021/12/08 07:20:18;;;;;;;35.22;18.75;;;;;;;;;;5007869;28;20022;-63
2021/12/08 07:22:52;;;;;;;27.98;14.93;;;;;;;;;;4993181;28;20489;-64
2021/12/08 07:25:20;;;;;;;37.78;16.80;;;;;;;;;;4993155;28;20052;-66
2021/12/08 07:27:46;;;;;;;45.80;18.55;;;;;;;;;;4996504;28;20033;-64
2021/12/08 07:30:18;;;;;;;31.38;14.43;;;;;;;;;;5006429;28;20380;-65
2021/12/08 07:32:43;;;;;;;40.00;16.27;;;;;;;;;;5009105;28;20034;-66
2021/12/08 07:35:20;;;;;;;41.92;22.80;;;;;;;;;;5007226;28;20058;-65
2021/12/08 07:37:46;;;;;;;37.13;19.52;;;;;;;;;;4998031;28;20442;-65
2021/12/08 07:40:15;;;;;;;41.20;21.08;;;;;;;;;;5008155;28;20105;-60
2021/12/08 07:42:44;;;;;;;30.80;14.13;;;;;;;;;;5009361;28;20025;-63
2021/12/08 07:45:14;;;;;;;42.47;19.52;;;;;;;;;;5001288;28;20191;-63
2021/12/08 07:47:41;;;;;;;35.50;15.68;;;;;;;;;;5007767;28;20028;-65
2021/12/08 07:50:30;;;;;;;41.28;24.20;;;;;;;;;;4992741;28;20041;-62
2021/12/08 07:52:57;;;;;;;45.00;23.10;;;;;;;;;;4994091;28;20041;-65
2021/12/08 07:55:34;;;;;;;33.30;20.00;;;;;;;;;;5003867;28;20041;-64
2021/12/08 07:58:01;;;;;;;43.45;24.95;;;;;;;;;;4999888;28;20031;-63
2021/12/08 08:00:43;;;;;;;42.22;21.33;;;;;;;;;;5006079;28;20395;-63
2021/12/08 08:03:11;;;;;;;31.25;15.95;;;;;;;;;;5005219;28;20085;-64
2021/12/08 08:05:37;;;;;;;39.85;16.77;;;;;;;;;;5005544;28;20125;-64
2021/12/08 08:08:06;;;;;;;29.17;15.70;;;;;;;;;;5005848;28;20034;-64
2021/12/08 08:10:41;;;;;;;25.02;12.82;;;;;;;;;;5001145;28;20125;-64
2021/12/08 08:13:08;;;;;;;27.10;14.70;;;;;;;;;;5005055;28;20022;-63
2021/12/08 08:15:39;;;;;;;32.88;15.07;;;;;;;;;;5003416;28;20038;-65
2021/12/08 08:18:08;;;;;;;34.05;14.57;;;;;;;;;;5005459;28;20026;-61
2021/12/08 08:20:38;;;;;;;32.97;15.85;;;;;;;;;;5011829;28;20469;-63
2021/12/08 08:23:04;;;;;;;23.42;12.20;;;;;;;;;;5002453;28;20038;-62
2021/12/08 08:25:37;;;;;;;39.97;24.65;;;;;;;;;;4998815;28;20441;-63
2021/12/08 08:28:04;;;;;;;38.00;15.52;;;;;;;;;;5001067;28;20496;-64
2021/12/08 08:30:43;;;;;;;47.90;24.38;;;;;;;;;;5011836;28;20524;-64
2021/12/08 08:33:08;;;;;;;27.08;15.48;;;;;;;;;;5011668;28;20022;-60
2021/12/08 08:35:41;;;;;;;40.13;23.02;;;;;;;;;;5011758;28;20084;-61
2021/12/08 08:38:11;;;;;;;32.17;14.63;;;;;;;;;;5009272;28;20068;-59
2021/12/08 08:40:46;;;;;;;29.38;12.30;;;;;;;;;;5000752;28;20034;-59
2021/12/08 08:43:12;;;;;;;27.25;15.13;;;;;;;;;;5001980;28;20037;-56
2021/12/08 08:45:47;;;;;;;28.85;14.95;;;;;;;;;;5009995;28;20204;-58
2021/12/08 08:48:31;;;;;;;47.72;26.67;;;;;;;;;;5004616;28;20030;-56
2021/12/08 08:51:14;;;;;;;36.30;17.92;;;;;;;;;;5007069;28;20030;-58
2021/12/08 08:53:42;;;;;;;41.40;16.95;;;;;;;;;;5011296;28;20105;-64
2021/12/08 08:56:15;;;;;;;38.58;21.00;;;;;;;;;;4995829;28;20077;-65
2021/12/08 08:58:44;;;;;;;32.70;16.58;;;;;;;;;;4995582;28;20525;-64
2021/12/08 09:01:35;;;;;;;29.70;16.88;;;;;;;;;;4997057;28;20470;-63
2021/12/08 09:04:15;;;;;;;41.17;15.32;;;;;;;;;;4992315;28;20026;-63
2021/12/08 09:06:44;;;;;;;22.83;12.52;;;;;;;;;;5001348;28;20018;-64
2021/12/08 09:09:20;;;;;;;43.97;20.02;;;;;;;;;;5004131;28;20046;-63
2021/12/08 09:11:54;;;;;;;50.78;29.98;;;;;;;;;;5012676;28;20034;-64
2021/12/08 09:14:23;;;;;;;36.75;17.92;;;;;;;;;;5013447;28;20125;-64
2021/12/08 09:16:57;;;;;;;44.05;25.67;;;;;;;;;;5012248;28;20401;-65
2021/12/08 09:19:31;;;;;;;28.05;13.45;;;;;;;;;;5010098;28;20057;-65
2021/12/08 09:22:14;;;;;;;32.53;15.77;;;;;;;;;;4997619;28;20022;-66
2021/12/08 09:24:44;;;;;;;26.13;14.10;;;;;;;;;;4995539;28;20035;-65
2021/12/08 09:27:12;;;;;;;53.67;28.70;;;;;;;;;;4995547;28;20030;-65
2021/12/08 09:41:42;;;;;;;48.17;21.48;;;;;;;;;;5070423;27;21053;-54
2021/12/08 09:44:15;;;;;;;31.33;14.07;;;;;;;;;;5069643;28;20079;-51
2021/12/08 09:46:46;;;;;;;35.70;18.05;;;;;;;;;;5074841;28;20021;-52
2021/12/08 09:49:15;;;;;;;31.77;16.00;;;;;;;;;;5069440;28;20024;-50
2021/12/08 09:51:43;;;;;;;46.08;18.60;;;;;;;;;;5069927;28;20035;-55
2021/12/08 09:54:09;;;;;;;22.70;12.30;;;;;;;;;;5071631;28;20050;-52
2021/12/08 09:56:35;;;;;;;44.08;19.73;;;;;;;;;;5071765;28;20021;-55
2021/12/08 09:59:05;;;;;;;31.35;17.50;;;;;;;;;;5069270;28;20378;-52
2021/12/08 10:01:32;;;;;;;32.58;15.07;;;;;;;;;;5068948;28;20106;-53
2021/12/08 10:03:59;;;;;;;39.28;17.30;;;;;;;;;;5070813;28;20033;-53
2021/12/08 10:06:26;;;;;;;31.90;19.00;;;;;;;;;;5071183;28;20035;-54
2021/12/08 10:08:58;;;;;;;43.15;19.23;;;;;;;;;;5069085;28;20029;-63
2021/12/08 10:11:26;;;;;;;43.33;24.95;;;;;;;;;;5068851;28;20641;-53
2021/12/08 10:13:52;;;;;;;35.03;18.15;;;;;;;;;;5069096;28;20383;-55
2021/12/08 10:16:17;;;;;;;49.35;25.80;;;;;;;;;;5070672;28;20024;-57
2021/12/08 10:18:44;;;;;;;33.75;14.95;;;;;;;;;;5068846;28;20036;-55
2021/12/08 10:21:10;;;;;;;38.88;21.35;;;;;;;;;;5068714;28;20025;-53
2021/12/08 10:23:38;;;;;;;48.50;26.15;;;;;;;;;;5068855;28;20032;-51
2021/12/08 10:26:18;;;;;;;40.67;23.13;;;;;;;;;;5068807;28;20494;-53
2021/12/08 10:28:44;;;;;;;19.98;11.07;;;;;;;;;;5068974;28;20021;-58
2021/12/08 10:31:30;;;;;;;37.58;19.30;;;;;;;;;;5068435;28;20025;-55
2021/12/08 10:36:48;;;;;;;35.65;17.30;;;;;;;;;;5068643;28;20103;-56
2021/12/08 10:39:45;;;;;;;58.15;29.63;;;;;;;;;;5068170;28;20467;-61
2021/12/08 10:42:18;;;;;;;24.23;14.15;;;;;;;;;;5069192;28;20064;-57
2021/12/08 10:45:08;;;;;;;38.22;18.05;;;;;;;;;;5055753;28;20044;-55
2021/12/08 10:47:43;;;;;;;51.47;28.60;;;;;;;;;;5054958;28;20033;-58
2021/12/08 10:56:00;;;;;;;44.83;22.25;;;;;;;;;;5043209;28;20814;-53
2021/12/08 10:58:30;;;;;;;40.60;21.00;;;;;;;;;;5054918;28;20021;-57
2021/12/08 11:00:59;;;;;;;49.17;28.13;;;;;;;;;;5054777;28;20021;-58
2021/12/08 11:03:32;;;;;;;41.53;18.40;;;;;;;;;;5054936;28;20031;-55
2021/12/08 11:06:01;;;;;;;35.05;16.67;;;;;;;;;;5055030;28;20036;-55
2021/12/08 11:08:32;;;;;;;67.53;38.60;;;;;;;;;;5054768;28;20061;-63
2021/12/08 11:11:13;;;;;;;53.83;23.27;;;;;;;;;;5054854;28;20521;-55
2021/12/08 11:13:42;;;;;;;59.10;31.95;;;;;;;;;;5064152;28;20052;-58
2021/12/08 11:16:10;;;;;;;40.95;21.42;;;;;;;;;;5051056;28;20031;-61
2021/12/08 11:18:39;;;;;;;50.33;19.42;;;;;;;;;;5053547;28;20100;-60
2021/12/08 11:21:23;;;;;;;54.70;26.13;;;;;;;;;;5054233;28;20386;-58
2021/12/08 11:23:51;;;;;;;63.70;29.98;;;;;;;;;;5054702;28;20107;-60
2021/12/08 11:26:26;;;;;;;48.75;26.20;;;;;;;;;;5054576;28;20021;-64
2021/12/08 11:28:53;;;;;;;48.60;24.55;;;;;;;;;;5054324;28;20057;-57
2021/12/08 11:31:20;;;;;;;62.28;33.22;;;;;;;;;;5053821;28;20035;-59
2021/12/08 11:33:49;;;;;;;27.25;13.05;;;;;;;;;;5054352;28;20029;-64
2021/12/08 11:36:20;;;;;;;42.00;21.13;;;;;;;;;;5052553;28;20382;-55
2021/12/08 11:38:49;;;;;;;25.88;13.85;;;;;;;;;;5048792;28;20021;-61
2021/12/08 11:41:36;;;;;;;33.08;19.05;;;;;;;;;;5050457;28;20045;-56
2021/12/08 11:44:11;;;;;;;41.67;22.25;;;;;;;;;;5050299;28;20072;-55
2021/12/08 11:46:52;;;;;;;44.05;22.13;;;;;;;;;;5054592;28;20041;-56
2021/12/08 11:49:18;;;;;;;30.23;12.60;;;;;;;;;;5051246;28;20043;-57
2021/12/08 11:51:44;;;;;;;30.50;14.45;;;;;;;;;;5053636;28;20029;-58
2021/12/08 11:54:29;;;;;;;34.75;19.73;;;;;;;;;;5053474;28;20047;-58
2021/12/08 11:57:17;;;;;;;47.53;26.33;;;;;;;;;;5048843;28;20491;-56
2021/12/08 11:59:54;;;;;;;39.33;15.70;;;;;;;;;;5053686;28;20372;-57
2021/12/08 12:02:22;;;;;;;35.42;18.27;;;;;;;;;;5053575;28;20017;-58
2021/12/08 12:04:48;;;;;;;36.78;16.23;;;;;;;;;;5053799;28;20025;-57
2021/12/08 12:07:14;;;;;;;23.70;11.40;;;;;;;;;;5045237;28;20486;-61
2021/12/08 12:09:42;;;;;;;24.30;12.95;;;;;;;;;;5053290;28;20125;-58
2021/12/08 12:12:08;;;;;;;42.30;14.75;;;;;;;;;;5053428;28;20506;-58
2021/12/08 12:14:35;;;;;;;30.15;14.40;;;;;;;;;;5053578;28;20036;-58
2021/12/08 12:17:00;;;;;;;29.60;14.90;;;;;;;;;;5052415;28;20048;-60
2021/12/08 12:19:37;;;;;;;31.13;14.13;;;;;;;;;;5053287;28;20108;-64
2021/12/08 12:22:33;;;;;;;33.25;17.08;;;;;;;;;;5041489;28;20580;-55
2021/12/08 12:25:23;;;;;;;29.30;13.63;;;;;;;;;;5052850;28;20096;-62
2021/12/08 12:28:24;;;;;;;47.78;21.02;;;;;;;;;;5053227;28;20090;-60
2021/12/08 12:31:06;;;;;;;36.47;19.42;;;;;;;;;;5053173;28;20028;-65
2021/12/08 12:33:41;;;;;;;31.42;14.88;;;;;;;;;;5053192;28;20029;-55
2021/12/08 12:36:24;;;;;;;30.63;14.20;;;;;;;;;;5053048;28;20114;-58
2021/12/08 12:38:51;;;;;;;24.08;12.52;;;;;;;;;;5052087;28;20060;-57
2021/12/08 12:41:32;;;;;;;41.65;23.83;;;;;;;;;;5052280;28;20491;-62
2021/12/08 12:44:20;;;;;;;29.45;13.27;;;;;;;;;;5054956;28;20039;-58
2021/12/08 12:47:04;;;;;;;37.28;17.85;;;;;;;;;;5048832;28;20483;-62
2021/12/08 12:49:31;;;;;;;41.58;19.77;;;;;;;;;;5052926;28;20021;-61
2021/12/08 12:52:10;;;;;;;23.70;12.43;;;;;;;;;;5052883;28;20037;-60
2021/12/08 12:54:39;;;;;;;42.37;21.43;;;;;;;;;;5057058;28;20017;-58
2021/12/08 12:57:07;;;;;;;31.83;17.05;;;;;;;;;;5052717;28;20293;-61
2021/12/08 12:59:51;;;;;;;25.95;13.90;;;;;;;;;;5052515;28;20090;-60
2021/12/08 13:02:24;;;;;;;51.28;21.95;;;;;;;;;;5051411;28;20057;-57
2021/12/08 13:04:54;;;;;;;41.70;19.83;;;;;;;;;;5052642;28;20035;-58
2021/12/08 13:07:19;;;;;;;21.90;11.57;;;;;;;;;;5052737;28;20023;-61
2021/12/08 13:09:52;;;;;;;29.02;15.10;;;;;;;;;;5051497;28;20176;-57
2021/12/08 13:12:23;;;;;;;28.80;15.73;;;;;;;;;;5051926;28;20506;-57
2021/12/08 13:15:20;;;;;;;31.73;17.00;;;;;;;;;;5052006;28;20021;-64
2021/12/08 13:18:08;;;;;;;29.00;13.38;;;;;;;;;;5050521;28;20104;-58
2021/12/08 13:20:34;;;;;;;51.92;28.25;;;;;;;;;;5051077;28;20040;-60
2021/12/08 13:23:03;;;;;;;32.72;17.35;;;;;;;;;;5051806;28;20025;-60
2021/12/08 13:28:13;;;;;;;28.52;13.00;;;;;;;;;;5052661;28;20115;-62
2021/12/08 13:31:15;;;;;;;24.48;14.43;;;;;;;;;;5052012;28;20069;-58
2021/12/08 13:34:14;;;;;;;22.10;12.88;;;;;;;;;;5028458;28;20141;-52
2021/12/08 13:36:43;;;;;;;22.00;12.40;;;;;;;;;;5011930;28;20033;-60
2021/12/08 13:39:13;;;;;;;27.15;15.15;;;;;;;;;;5029635;28;20535;-56
2021/12/08 13:41:40;;;;;;;33.53;16.83;;;;;;;;;;5029994;28;20034;-56
2021/12/08 13:45:14;;;;;;;28.05;11.10;;;;;;;;;;5030062;28;20034;-61
2021/12/08 13:47:45;;;;;;;23.90;11.63;;;;;;;;;;4930935;29;20043;-63
2021/12/08 13:50:13;;;;;;;28.33;11.73;;;;;;;;;;4930800;29;20040;-58
2021/12/08 13:52:45;;;;;;;35.42;19.92;;;;;;;;;;4931795;29;20538;-56
2021/12/08 13:55:14;;;;;;;27.85;13.98;;;;;;;;;;4932018;29;20125;-60
2021/12/08 13:57:43;;;;;;;30.73;14.77;;;;;;;;;;4932421;29;20044;-57
2021/12/08 14:00:08;;;;;;;19.15;11.38;;;;;;;;;;4932797;29;20036;-54
2021/12/08 14:02:37;;;;;;;27.42;13.63;;;;;;;;;;4930759;29;20046;-56
2021/12/08 14:05:05;;;;;;;19.85;11.98;;;;;;;;;;4923388;29;20572;-53
2021/12/08 14:07:31;;;;;;;21.02;12.68;;;;;;;;;;4932088;29;20130;-56
2021/12/08 14:10:00;;;;;;;25.95;12.85;;;;;;;;;;4938262;29;20514;-53
2021/12/08 14:12:48;;;;;;;26.83;12.90;;;;;;;;;;4951620;29;20526;-60
2021/12/08 14:15:16;;;;;;;29.83;12.18;;;;;;;;;;4951647;28;20082;-57
2021/12/08 14:17:42;;;;;;;31.55;17.67;;;;;;;;;;4954737;29;20039;-58
2021/12/08 14:20:28;;;;;;;31.15;12.85;;;;;;;;;;4959399;28;20039;-60
2021/12/08 14:22:54;;;;;;;47.42;18.92;;;;;;;;;;5026617;28;20037;-57
2021/12/08 14:25:35;;;;;;;36.17;17.58;;;;;;;;;;5054838;28;20434;-56
2021/12/08 14:28:20;;;;;;;19.02;11.32;;;;;;;;;;5052799;28;20029;-62
2021/12/08 14:30:46;;;;;;;36.97;16.23;;;;;;;;;;5051850;28;20395;-62
2021/12/08 14:33:11;;;;;;;17.10;10.18;;;;;;;;;;5052354;28;20017;-56
2021/12/08 14:35:37;;;;;;;29.45;16.73;;;;;;;;;;5055085;28;20029;-59
2021/12/08 14:38:04;;;;;;;27.30;11.82;;;;;;;;;;5060145;28;20037;-63
2021/12/08 14:40:30;;;;;;;33.17;15.38;;;;;;;;;;5054852;28;20053;-62
2021/12/08 14:42:56;;;;;;;36.97;20.27;;;;;;;;;;5055092;28;20029;-63
2021/12/08 14:45:26;;;;;;;37.03;16.15;;;;;;;;;;5063553;28;20036;-63
2021/12/08 14:47:52;;;;;;;29.63;15.15;;;;;;;;;;5054691;28;20025;-61
2021/12/08 14:50:24;;;;;;;34.15;18.85;;;;;;;;;;5055572;28;20533;-65
2021/12/08 14:52:50;;;;;;;37.05;15.80;;;;;;;;;;5055149;28;20049;-59
2021/12/08 14:55:21;;;;;;;41.20;16.70;;;;;;;;;;5055213;28;20024;-64
2021/12/08 14:57:52;;;;;;;36.15;15.80;;;;;;;;;;5053473;28;20033;-64
2021/12/08 15:00:22;;;;;;;39.45;21.80;;;;;;;;;;5058036;28;20406;-62
2021/12/08 15:03:03;;;;;;;33.40;16.25;;;;;;;;;;5052707;28;20033;-53
2021/12/08 15:05:30;;;;;;;50.17;27.73;;;;;;;;;;5052696;28;20033;-58
2021/12/08 15:07:55;;;;;;;36.22;16.45;;;;;;;;;;5053849;28;20024;-55
2021/12/08 15:10:29;;;;;;;42.65;17.75;;;;;;;;;;5053655;28;20025;-59
2021/12/08 15:13:09;;;;;;;25.75;14.82;;;;;;;;;;5053749;28;20028;-55
2021/12/08 15:15:36;;;;;;;37.38;16.02;;;;;;;;;;5053084;28;20049;-59
2021/12/08 15:18:07;;;;;;;28.85;14.82;;;;;;;;;;5055082;28;20499;-59
2021/12/08 15:20:38;;;;;;;41.13;18.80;;;;;;;;;;5052031;28;20173;-55
2021/12/08 15:23:11;;;;;;;35.80;17.73;;;;;;;;;;5053454;28;20036;-55
2021/12/08 15:25:39;;;;;;;28.05;12.63;;;;;;;;;;5053984;28;20033;-60
2021/12/08 15:28:08;;;;;;;30.63;16.70;;;;;;;;;;5054282;28;20033;-57
2021/12/08 15:30:44;;;;;;;38.80;23.40;;;;;;;;;;5054617;28;20087;-61
2021/12/08 15:33:13;;;;;;;49.88;20.02;;;;;;;;;;5054436;28;20032;-61
2021/12/08 15:35:39;;;;;;;36.53;19.73;;;;;;;;;;5053989;28;20479;-57
2021/12/08 15:38:06;;;;;;;30.35;13.45;;;;;;;;;;5052655;28;20090;-62
2021/12/08 15:40:44;;;;;;;50.08;22.10;;;;;;;;;;5053802;28;20510;-60
2021/12/08 15:43:13;;;;;;;55.20;25.52;;;;;;;;;;5054057;28;20032;-58
2021/12/08 15:45:45;;;;;;;41.70;23.88;;;;;;;;;;5062827;28;20506;-61
2021/12/08 15:48:18;;;;;;;50.40;21.17;;;;;;;;;;5050507;28;20467;-63
2021/12/08 15:50:50;;;;;;;31.52;13.30;;;;;;;;;;5063471;28;20041;-64
2021/12/08 15:53:19;;;;;;;36.78;17.98;;;;;;;;;;5069302;28;20062;-57